Logan Cache Airport Logan US
ICAO: KLGU
IATA: LGU
Category: Medium
Scheduled Services: No

Elevation: 4457 ft
TransAlt. 18000 ft.

Airport Communications:
ASOS:135.275
CEDAR CITY RDO:122.2
CTAF/UNICOM:122.8

KLGU Zoom In..

Runways:

(A) RW 10 length 5005 ft width 75 ft
---- / hdg 108

(B) RW 17 length 9010 ft width 100 ft
ILS 109.15 / hdg 169

(C) RW 28 length 5005 ft width 75 ft
---- / hdg 288

(D) RW 35 length 9010 ft width 100 ft
---- / hdg 349

Location; KLGU
Day. 26 / Time. 03.51 Zulu
* Altimeter: 29.82
* Temperature: 20° c. 68°f.
* Wind from: 090° Speed 06 kn.
Dewpoint: 08° c.
Visibility: 10 Statute Miles.
Clouds: Clear (automated report).

KLGU 260351Z AUTO 09006KT 10SM CLR 20/08 A2982 RMK AO2 SLP054 T02000078


Wind From 090°
Speed 06 kn.

 
 
jpsmedia.com for Web Design SOUNDCLOUD worldairports.se 2018   terms of use